Time;durP1;ratioP1;P1;durP2;ratioP2;P2;SDS_P1;SDS_P2;PMS_P1;PMS_P2;Temp;Humidity;BMP_temperature;BMP_pressure;BME280_temperature;BME280_humidity;BME280_pressure;Samples;Min_cycle;Max_cycle;Signal;HPM_P1;HPM_P2
2023/04/19 00:00:40;;;;;;;7.18;5.35;;;;;;;;;;5091830;28;20237;-89
2023/04/19 00:03:07;;;;;;;6.43;4.13;;;7.80;1.00;;;;;;5084426;28;20238;-89
2023/04/19 00:05:37;;;;;;;6.60;4.68;;;;;;;;;;5098737;28;20210;-88
2023/04/19 00:08:04;;;;;;;7.43;4.53;;;6.70;11.40;;;;;;5100182;28;20206;-87
2023/04/19 00:10:36;;;;;;;5.35;4.85;;;7.10;99.90;;;;;;5100089;28;20187;-88
2023/04/19 00:13:03;;;;;;;5.00;4.07;;;6.90;1.00;;;;;;5091631;28;20222;-89
2023/04/19 00:15:30;;;;;;;5.05;4.50;;;;;;;;;;5089809;28;20240;-89
2023/04/19 00:17:57;;;;;;;7.97;4.55;;;6.90;49.50;;;;;;5084355;28;20238;-89
2023/04/19 00:20:24;;;;;;;7.78;4.15;;;;;;;;;;5081814;28;20207;-89
2023/04/19 00:22:55;;;;;;;6.18;3.30;;;6.60;1.00;;;;;;5083883;28;20199;-90
2023/04/19 00:25:24;;;;;;;10.02;4.70;;;;;;;;;;5078775;28;20221;-90
2023/04/19 00:27:52;;;;;;;8.35;4.07;;;6.90;1.00;;;;;;5077955;28;20233;-89
2023/04/19 00:30:19;;;;;;;3.95;3.55;;;;;;;;;;5077945;28;20203;-89
2023/04/19 00:32:46;;;;;;;4.72;4.32;;;6.90;99.90;;;;;;5078003;28;20256;-89
2023/04/19 00:35:14;;;;;;;4.03;3.72;;;;;;;;;;5077354;28;20665;-89
2023/04/19 00:37:40;;;;;;;5.78;3.40;;;7.00;1.00;;;;;;5077664;28;20227;-88
2023/04/19 00:40:08;;;;;;;5.82;4.00;;;7.00;1.00;;;;;;5085927;28;20218;-89
2023/04/19 00:42:36;;;;;;;3.65;3.35;;;6.70;20.70;;;;;;5093628;28;20598;-89
2023/04/19 00:45:05;;;;;;;6.38;4.07;;;7.30;1.00;;;;;;5095009;28;20234;-88
2023/04/19 00:47:32;;;;;;;7.35;3.95;;;;;;;;;;5096786;28;20256;-89
2023/04/19 00:49:59;;;;;;;6.50;3.85;;;7.00;1.00;;;;;;5097428;28;20230;-89
2023/04/19 00:52:27;;;;;;;3.92;3.53;;;7.00;1.00;;;;;;5098211;28;20206;-89
2023/04/19 00:54:58;;;;;;;4.53;3.80;;;6.70;1.00;;;;;;5097198;28;20183;-89
2023/04/19 00:57:25;;;;;;;4.35;3.55;;;6.80;99.90;;;;;;5092438;28;20279;-88
2023/04/19 00:59:52;;;;;;;4.45;3.97;;;7.00;1.00;;;;;;5087011;28;20226;-89
2023/04/19 01:02:23;;;;;;;5.70;3.55;;;7.20;1.00;;;;;;5084139;28;20310;-89
2023/04/19 01:04:50;;;;;;;6.53;3.90;;;6.60;1.00;;;;;;5082352;28;20255;-89
2023/04/19 01:07:17;;;;;;;4.82;3.80;;;6.80;1.00;;;;;;5081206;28;20321;-89
2023/04/19 01:09:46;;;;;;;4.18;3.78;;;6.70;1.00;;;;;;5080448;28;20207;-89
2023/04/19 01:12:13;;;;;;;3.90;3.45;;;6.90;1.00;;;;;;5095448;28;20213;-89
2023/04/19 01:14:40;;;;;;;4.57;4.20;;;;;;;;;;5098642;28;20203;-88
2023/04/19 01:17:07;;;;;;;5.45;3.80;;;6.80;1.00;;;;;;5082977;28;20254;-89
2023/04/19 01:19:37;;;;;;;5.85;5.35;;;6.50;1.00;;;;;;5082542;28;20270;-89
2023/04/19 01:22:05;;;;;;;7.15;3.70;;;;;;;;;;5084212;28;20210;-88
2023/04/19 01:24:33;;;;;;;4.07;3.70;;;6.40;1.00;;;;;;5099049;28;20174;-88
2023/04/19 01:27:01;;;;;;;16.85;3.95;;;;;;;;;;5082801;28;20226;-90
2023/04/19 01:29:28;;;;;;;9.13;3.47;;;;;;;;;;5082514;28;20253;-89
2023/04/19 01:31:55;;;;;;;4.68;3.17;;;;;;;;;;5083492;28;20206;-89
2023/04/19 01:34:23;;;;;;;4.97;3.90;;;;;;;;;;5080195;28;20203;-90
2023/04/19 01:36:50;;;;;;;6.30;4.22;;;;;;;;;;5078190;28;20249;-90
2023/04/19 01:39:17;;;;;;;3.90;3.10;;;6.20;1.00;;;;;;5077929;28;20209;-90
2023/04/19 01:41:45;;;;;;;4.13;3.55;;;6.20;1.00;;;;;;5080852;28;20309;-90
2023/04/19 01:44:13;;;;;;;6.30;3.55;;;;;;;;;;5077733;28;20230;-89
2023/04/19 01:46:41;;;;;;;5.93;4.47;;;;;;;;;;5084591;28;20234;-89
2023/04/19 01:49:08;;;;;;;6.35;4.55;;;6.20;1.00;;;;;;5081904;28;20708;-89
2023/04/19 01:51:35;;;;;;;4.40;3.30;;;;;;;;;;5075990;28;20241;-89
2023/04/19 01:54:02;;;;;;;4.75;3.90;;;6.40;1.00;;;;;;5081909;28;20199;-89
2023/04/19 01:56:29;;;;;;;3.67;2.75;;;6.10;1.00;;;;;;5075773;28;20202;-89
2023/04/19 01:58:57;;;;;;;3.88;3.53;;;6.00;1.00;;;;;;5079454;28;20211;-89
2023/04/19 02:01:24;;;;;;;3.28;3.00;;;6.00;2.80;;;;;;5097373;28;20207;-89
2023/04/19 02:03:51;;;;;;;3.10;2.90;;;5.90;1.00;;;;;;5098220;28;20242;-88
2023/04/19 02:06:18;;;;;;;3.58;3.28;;;;;;;;;;5098393;28;20203;-87
2023/04/19 02:08:45;;;;;;;4.75;3.65;;;5.90;1.00;;;;;;5091562;28;20309;-88
2023/04/19 02:11:14;;;;;;;4.20;3.85;;;5.70;26.10;;;;;;5087012;28;20218;-87
2023/04/19 02:13:41;;;;;;;4.10;3.70;;;5.90;1.00;;;;;;5090992;28;20207;-89
2023/04/19 02:16:10;;;;;;;6.15;3.33;;;5.50;99.90;;;;;;5084188;28;20219;-89
2023/04/19 02:18:39;;;;;;;5.22;4.20;;;5.80;99.90;;;;;;5075398;28;20254;-89
2023/04/19 02:21:07;;;;;;;5.25;3.55;;;5.60;1.00;;;;;;5075380;28;20207;-88
2023/04/19 02:23:34;;;;;;;3.42;3.13;;;7.40;1.00;;;;;;5076232;28;20576;-89
2023/04/19 02:26:02;;;;;;;5.32;3.78;;;5.70;99.90;;;;;;5089038;28;20183;-86
2023/04/19 02:28:29;;;;;;;5.65;4.00;;;;;;;;;;5101527;28;20227;-87
2023/04/19 02:30:56;;;;;;;3.60;3.13;;;;;;;;;;5101966;28;20213;-87
2023/04/19 02:33:27;;;;;;;4.97;3.38;;;5.50;99.90;;;;;;5091629;28;20183;-88
2023/04/19 02:35:54;;;;;;;4.35;3.95;;;5.40;1.00;;;;;;5083803;28;20252;-89
2023/04/19 02:38:21;;;;;;;4.43;3.97;;;5.40;33.20;;;;;;5083838;28;20241;-88
2023/04/19 02:40:48;;;;;;;5.63;3.88;;;;;;;;;;5079822;28;20213;-88
2023/04/19 02:43:15;;;;;;;6.13;4.55;;;5.30;99.90;;;;;;5087885;28;20317;-88
2023/04/19 02:45:42;;;;;;;3.70;3.40;;;5.30;99.90;;;;;;5091130;28;20230;-89
2023/04/19 02:48:09;;;;;;;6.82;3.72;;;5.20;1.00;;;;;;5087121;28;20654;-89
2023/04/19 02:50:38;;;;;;;4.50;4.10;;;5.20;31.70;;;;;;5079668;28;20203;-89
2023/04/19 02:53:05;;;;;;;4.38;3.95;;;5.20;99.90;;;;;;5081146;28;20290;-88
2023/04/19 02:55:33;;;;;;;4.95;4.45;;;5.70;1.00;;;;;;5081156;28;20207;-89
2023/04/19 02:58:00;;;;;;;4.03;3.65;;;5.10;99.90;;;;;;5078266;28;20719;-89
2023/04/19 03:00:26;;;;;;;3.95;3.30;;;5.10;99.90;;;;;;5081721;28;20721;-89
2023/04/19 03:02:54;;;;;;;7.05;4.15;;;5.00;99.90;;;;;;5079493;28;20230;-90
2023/04/19 03:05:21;;;;;;;8.02;5.35;;;5.00;99.90;;;;;;5079633;28;20639;-89
2023/04/19 03:07:50;;;;;;;7.35;5.47;;;;;;;;;;5079117;28;20675;-89
2023/04/19 03:10:17;;;;;;;12.77;3.50;;;;;;;;;;5079774;28;20202;-89
2023/04/19 03:12:44;;;;;;;5.07;4.57;;;5.00;1.00;;;;;;5096552;28;20190;-89
2023/04/19 03:15:11;;;;;;;4.07;3.10;;;4.90;1.00;;;;;;5100904;28;20183;-88
2023/04/19 03:17:38;;;;;;;3.50;3.30;;;;;;;;;;5100793;28;20233;-88
2023/04/19 03:20:08;;;;;;;6.05;4.07;;;5.10;99.90;;;;;;5101022;28;20214;-89
2023/04/19 03:22:35;;;;;;;3.35;3.10;;;5.10;99.90;;;;;;5100980;28;20233;-88
2023/04/19 03:25:04;;;;;;;6.57;3.55;;;4.70;10.40;;;;;;5101108;28;20180;-87
2023/04/19 03:27:31;;;;;;;3.40;3.10;;;4.80;1.00;;;;;;5101114;28;20233;-87
2023/04/19 03:29:58;;;;;;;4.80;3.65;;;4.60;99.90;;;;;;5100858;28;20210;-87
2023/04/19 03:32:24;;;;;;;6.75;3.30;;;4.90;99.90;;;;;;5100731;28;20197;-87
2023/04/19 03:34:52;;;;;;;4.70;3.28;;;;;;;;;;5100849;28;20190;-89
2023/04/19 03:37:18;;;;;;;4.15;3.10;;;4.90;1.00;;;;;;5100461;28;20210;-88
2023/04/19 03:39:45;;;;;;;6.32;3.70;;;4.50;1.00;;;;;;5085945;28;20242;-89
2023/04/19 03:42:14;;;;;;;4.55;3.65;;;4.80;99.90;;;;;;5084528;28;20224;-89
2023/04/19 03:44:41;;;;;;;4.38;3.40;;;5.00;99.90;;;;;;5085733;28;20264;-89
2023/04/19 03:47:07;;;;;;;3.78;3.00;;;4.80;1.00;;;;;;5078885;28;20313;-89
2023/04/19 03:49:34;;;;;;;4.18;3.63;;;4.80;1.00;;;;;;5079801;28;20246;-89
2023/04/19 03:52:01;;;;;;;6.25;3.42;;;4.70;99.90;;;;;;5079671;28;20313;-89
2023/04/19 03:54:28;;;;;;;6.03;2.80;;;4.60;1.00;;;;;;5078574;28;20199;-88
2023/04/19 03:56:55;;;;;;;10.02;3.75;;;6.80;1.00;;;;;;5077788;28;20230;-89
2023/04/19 03:59:24;;;;;;;4.90;3.58;;;4.60;99.90;;;;;;5077465;28;20217;-89
2023/04/19 04:01:51;;;;;;;4.05;3.55;;;4.90;40.80;;;;;;5077453;28;20249;-89
2023/04/19 04:04:18;;;;;;;4.10;3.70;;;;;;;;;;5078663;28;20199;-90
2023/04/19 04:06:45;;;;;;;6.15;3.33;;;4.60;99.90;;;;;;5093714;28;20194;-89
2023/04/19 04:09:11;;;;;;;11.38;3.20;;;4.50;99.90;;;;;;5086379;28;20208;-89
2023/04/19 04:11:38;;;;;;;3.55;3.08;;;5.30;1.00;;;;;;5099497;28;20262;-89
2023/04/19 04:14:05;;;;;;;3.40;3.10;;;4.50;99.90;;;;;;5098594;28;20203;-88
2023/04/19 04:16:33;;;;;;;3.50;3.20;;;4.40;1.00;;;;;;5094214;28;20206;-89
2023/04/19 04:19:00;;;;;;;6.05;3.30;;;4.60;1.00;;;;;;5099507;28;20220;-87
2023/04/19 04:21:27;;;;;;;4.03;3.00;;;5.10;99.90;;;;;;5100045;28;20281;-88
2023/04/19 04:23:54;;;;;;;3.40;3.10;;;4.50;99.90;;;;;;5099878;28;20201;-88
2023/04/19 04:26:24;;;;;;;6.45;3.60;;;4.50;1.00;;;;;;5085159;28;20212;-89
2023/04/19 04:28:50;;;;;;;5.20;3.30;;;4.40;99.90;;;;;;5079314;28;20301;-90
2023/04/19 04:31:17;;;;;;;4.95;2.90;;;5.30;1.00;;;;;;5079824;28;20215;-89
2023/04/19 04:33:46;;;;;;;4.78;3.40;;;4.40;1.00;;;;;;5079872;28;20206;-89
2023/04/19 04:36:13;;;;;;;8.90;3.15;;;;;;;;;;5078708;28;20230;-89
2023/04/19 04:38:40;;;;;;;4.75;3.67;;;4.40;1.00;;;;;;5077684;28;20625;-89
2023/04/19 04:41:07;;;;;;;3.25;2.95;;;4.50;99.90;;;;;;5077074;28;20215;-89
2023/04/19 04:43:34;;;;;;;5.07;3.08;;;4.50;1.00;;;;;;5086446;28;20233;-88
2023/04/19 04:46:01;;;;;;;4.10;3.70;;;4.50;99.90;;;;;;5094800;28;20293;-87
2023/04/19 04:48:28;;;;;;;5.35;3.65;;;4.60;99.90;;;;;;5093161;28;20242;-87
2023/04/19 04:50:56;;;;;;;7.32;3.15;;;4.70;99.90;;;;;;5088596;28;20250;-88
2023/04/19 04:53:23;;;;;;;3.70;3.40;;;4.50;99.90;;;;;;5080859;28;20665;-91
2023/04/19 04:55:50;;;;;;;3.35;2.65;;;;;;;;;;5080013;28;20217;-88
2023/04/19 04:58:17;;;;;;;3.83;3.42;;;4.60;99.90;;;;;;5078964;28;20304;-88
2023/04/19 05:00:44;;;;;;;5.07;3.67;;;4.80;1.00;;;;;;5077061;28;20202;-88
2023/04/19 05:03:11;;;;;;;3.55;2.80;;;4.60;99.90;;;;;;5077514;28;20586;-89
2023/04/19 05:05:38;;;;;;;10.98;6.78;;;4.60;99.90;;;;;;5077019;28;20291;-89
2023/04/19 05:08:06;;;;;;;22.30;11.98;;;4.60;1.00;;;;;;5084168;28;20633;-89
2023/04/19 05:10:33;;;;;;;7.60;6.35;;;4.70;1.00;;;;;;5083953;28;20217;-89
2023/04/19 05:13:01;;;;;;;17.75;10.23;;;4.90;1.00;;;;;;5078054;28;20613;-89
2023/04/19 05:15:28;;;;;;;13.32;8.35;;;4.70;99.90;;;;;;5079457;28;20204;-89
2023/04/19 05:17:54;;;;;;;6.18;3.30;;;5.00;1.00;;;;;;5076483;28;20286;-89
2023/04/19 05:20:23;;;;;;;4.70;3.40;;;4.80;1.00;;;;;;5079329;28;20266;-89
2023/04/19 05:22:50;;;;;;;6.82;4.95;;;4.80;99.90;;;;;;5076765;28;20241;-89
2023/04/19 05:25:18;;;;;;;3.42;3.22;;;4.80;99.90;;;;;;5077670;28;20315;-88
2023/04/19 05:27:45;;;;;;;6.15;3.30;;;4.90;99.90;;;;;;5081830;28;20759;-88
2023/04/19 05:30:12;;;;;;;3.42;3.13;;;4.90;99.90;;;;;;5098047;28;20210;-87
2023/04/19 05:32:39;;;;;;;3.22;2.90;;;4.90;79.10;;;;;;5079885;28;20670;-89
2023/04/19 05:35:07;;;;;;;3.90;2.90;;;4.90;99.90;;;;;;5078776;28;20735;-89
2023/04/19 05:37:35;;;;;;;5.50;3.20;;;4.80;99.90;;;;;;5077777;28;20225;-90
2023/04/19 05:40:04;;;;;;;4.70;2.90;;;5.10;1.00;;;;;;5077624;28;20222;-89
2023/04/19 05:42:32;;;;;;;7.05;3.03;;;5.30;1.00;;;;;;5089553;28;20217;-88
2023/04/19 05:44:59;;;;;;;4.40;3.35;;;5.30;1.00;;;;;;5082670;28;20216;-89
2023/04/19 05:47:26;;;;;;;6.75;3.53;;;5.10;1.00;;;;;;5081038;28;20257;-89
2023/04/19 05:49:53;;;;;;;3.83;3.10;;;5.20;1.00;;;;;;5076580;28;20206;-89
2023/04/19 05:52:20;;;;;;;6.15;3.10;;;;;;;;;;5075958;28;20206;-88
2023/04/19 05:54:47;;;;;;;3.05;2.78;;;5.30;99.90;;;;;;5080588;28;20235;-88
2023/04/19 05:57:14;;;;;;;3.60;3.40;;;5.30;1.00;;;;;;5085113;28;20597;-90
2023/04/19 05:59:42;;;;;;;10.13;3.20;;;5.70;1.00;;;;;;5076942;28;20206;-90
2023/04/19 06:02:09;;;;;;;6.40;2.95;;;5.70;1.00;;;;;;5077685;28;20379;-89
2023/04/19 06:04:36;;;;;;;6.30;3.00;;;5.50;99.90;;;;;;5080248;28;20257;-91
2023/04/19 06:07:03;;;;;;;6.82;3.53;;;;;;;;;;5089320;28;20256;-89
2023/04/19 06:09:31;;;;;;;5.90;3.70;;;5.60;99.90;;;;;;5099692;28;20217;-90
2023/04/19 06:11:58;;;;;;;3.70;3.03;;;;;;;;;;5101213;28;20195;-88
2023/04/19 06:14:28;;;;;;;4.68;3.17;;;6.00;1.00;;;;;;5095130;28;20242;-87
2023/04/19 06:16:56;;;;;;;4.60;2.95;;;6.00;1.00;;;;;;5093440;28;20214;-88
2023/04/19 06:19:26;;;;;;;4.20;2.85;;;5.80;99.90;;;;;;5102002;28;20171;-89
2023/04/19 06:21:52;;;;;;;2.60;2.40;;;6.30;99.90;;;;;;5101782;28;20185;-88
2023/04/19 06:24:20;;;;;;;4.28;3.30;;;;;;;;;;5100971;28;20233;-89
2023/04/19 06:26:48;;;;;;;4.13;2.67;;;;;;;;;;5099258;28;20195;-89
2023/04/19 06:29:15;;;;;;;7.38;2.85;;;6.10;99.90;;;;;;5083800;28;20209;-89
2023/04/19 06:31:42;;;;;;;3.15;2.85;;;;;;;;;;5088799;28;20203;-89
2023/04/19 06:34:11;;;;;;;4.50;3.25;;;6.50;99.90;;;;;;5101805;28;20220;-87
2023/04/19 06:36:37;;;;;;;5.32;3.55;;;6.20;89.80;;;;;;5101694;28;20197;-88
2023/04/19 06:39:04;;;;;;;3.53;2.90;;;6.40;1.00;;;;;;5102066;28;20195;-86
2023/04/19 06:41:31;;;;;;;3.35;3.05;;;6.80;1.00;;;;;;5101542;28;20202;-87
2023/04/19 06:43:58;;;;;;;6.18;3.90;;;6.70;1.00;;;;;;5101631;28;20230;-87
2023/04/19 06:46:26;;;;;;;9.00;3.55;;;6.50;99.90;;;;;;5101544;28;20187;-86
2023/04/19 06:48:53;;;;;;;7.35;4.00;;;6.20;99.90;;;;;;5101277;28;20190;-87
2023/04/19 06:51:23;;;;;;;3.30;2.97;;;6.40;1.00;;;;;;5099925;28;20251;-88
2023/04/19 06:53:50;;;;;;;6.40;2.65;;;6.70;99.90;;;;;;5100980;28;20181;-87
2023/04/19 06:56:17;;;;;;;3.90;2.80;;;6.70;1.00;;;;;;5100637;28;20195;-87
2023/04/19 06:58:44;;;;;;;2.80;2.60;;;6.80;99.90;;;;;;5087173;28;20322;-88
2023/04/19 07:01:11;;;;;;;3.88;2.78;;;6.90;99.90;;;;;;5081175;28;20294;-87
2023/04/19 07:03:38;;;;;;;6.60;3.33;;;6.90;31.20;;;;;;5080383;28;20219;-87
2023/04/19 07:06:05;;;;;;;5.05;2.80;;;6.90;1.00;;;;;;5081764;28;20256;-87
2023/04/19 07:08:34;;;;;;;2.75;2.50;;;7.50;1.00;;;;;;5081925;28;20250;-87
2023/04/19 07:11:01;;;;;;;2.50;2.30;;;7.20;1.00;;;;;;5080991;28;20203;-87
2023/04/19 07:13:28;;;;;;;5.75;3.08;;;7.20;1.00;;;;;;5079886;28;20298;-88
2023/04/19 07:15:55;;;;;;;3.03;2.78;;;7.20;1.00;;;;;;5081378;28;20213;-86
2023/04/19 07:18:22;;;;;;;6.68;3.28;;;7.30;1.00;;;;;;5080539;28;20600;-87
2023/04/19 07:20:48;;;;;;;6.97;3.45;;;7.40;1.00;;;;;;5079457;28;20217;-87
2023/04/19 07:23:16;;;;;;;5.43;2.85;;;7.60;1.00;;;;;;5079632;28;20223;-87
2023/04/19 07:25:44;;;;;;;3.10;2.90;;;7.70;1.00;;;;;;5080310;28;20214;-87
2023/04/19 07:28:11;;;;;;;3.80;2.65;;;7.80;1.00;;;;;;5097293;28;20222;-86
2023/04/19 07:30:38;;;;;;;5.90;2.60;;;;;;;;;;5100155;28;20212;-85
2023/04/19 07:33:07;;;;;;;2.20;2.08;;;7.90;1.00;;;;;;5099096;28;20203;-87
2023/04/19 07:35:34;;;;;;;7.75;2.22;;;;;;;;;;5090961;28;20274;-88
2023/04/19 07:38:01;;;;;;;2.78;2.35;;;7.90;1.00;;;;;;5088210;28;20219;-87
2023/04/19 07:40:30;;;;;;;2.75;2.55;;;8.00;1.00;;;;;;5085462;28;20218;-88
2023/04/19 07:42:59;;;;;;;4.90;2.80;;;8.10;1.00;;;;;;5087164;28;20353;-88
2023/04/19 07:45:26;;;;;;;2.72;2.28;;;8.10;1.00;;;;;;5091514;28;20206;-87
2023/04/19 07:47:53;;;;;;;4.35;3.03;;;8.10;1.00;;;;;;5088421;28;20265;-87
2023/04/19 07:50:20;;;;;;;5.10;2.90;;;8.20;1.00;;;;;;5087149;28;20231;-87
2023/04/19 07:52:46;;;;;;;3.25;2.50;;;8.30;1.00;;;;;;5093533;28;20263;-87
2023/04/19 07:55:14;;;;;;;4.07;3.58;;;8.40;1.00;;;;;;5091947;28;20214;-88
2023/04/19 07:57:44;;;;;;;5.03;2.30;;;8.60;1.00;;;;;;5093951;28;20241;-87
2023/04/19 08:00:14;;;;;;;5.75;2.70;;;8.70;1.00;;;;;;5090593;28;20440;-87
2023/04/19 08:02:43;;;;;;;5.47;2.57;;;9.10;5.30;;;;;;5089784;28;20191;-87
2023/04/19 08:05:10;;;;;;;3.40;3.10;;;8.80;1.00;;;;;;5087174;28;20448;-87
2023/04/19 08:07:37;;;;;;;8.32;3.80;;;8.80;1.00;;;;;;5078827;28;20295;-87
2023/04/19 08:10:04;;;;;;;11.40;4.97;;;8.90;1.00;;;;;;5079235;28;20565;-88
2023/04/19 08:12:31;;;;;;;2.97;2.60;;;9.20;1.00;;;;;;5082825;28;20513;-87
2023/04/19 08:14:58;;;;;;;2.60;2.40;;;9.30;1.00;;;;;;5089483;28;20472;-87
2023/04/19 08:17:26;;;;;;;3.50;2.30;;;9.30;1.00;;;;;;5086598;28;20465;-87
2023/04/19 08:19:53;;;;;;;3.50;3.10;;;9.20;1.00;;;;;;5092412;28;20437;-87
2023/04/19 08:22:21;;;;;;;4.27;2.87;;;9.30;1.00;;;;;;5090467;28;20441;-87
2023/04/19 08:24:50;;;;;;;2.67;2.27;;;9.50;1.00;;;;;;5084127;28;20485;-87
2023/04/19 08:27:17;;;;;;;3.47;3.10;;;9.50;1.00;;;;;;5080751;28;20473;-87
2023/04/19 08:29:44;;;;;;;3.53;2.80;;;10.00;1.00;;;;;;5094953;28;20445;-86
2023/04/19 08:32:11;;;;;;;3.20;2.83;;;9.80;1.00;;;;;;5099726;28;20429;-86
2023/04/19 08:34:40;;;;;;;6.80;3.77;;;9.70;1.00;;;;;;5098982;28;20453;-86
2023/04/19 08:37:07;;;;;;;3.33;3.03;;;9.70;1.00;;;;;;5099417;28;20483;-86
2023/04/19 08:39:35;;;;;;;7.80;4.70;;;9.70;1.00;;;;;;5099140;28;20501;-87
2023/04/19 08:42:05;;;;;;;4.30;3.17;;;9.60;1.00;;;;;;5096095;28;20424;-87
2023/04/19 08:44:33;;;;;;;5.03;3.40;;;9.60;1.00;;;;;;5082529;28;20458;-87
2023/04/19 08:47:01;;;;;;;5.80;3.13;;;9.60;1.00;;;;;;5080626;28;20436;-87
2023/04/19 08:49:28;;;;;;;5.77;3.50;;;9.50;1.00;;;;;;5079512;28;20441;-87
2023/04/19 08:51:57;;;;;;;3.53;3.23;;;9.90;1.00;;;;;;5078403;28;20457;-87
2023/04/19 08:54:25;;;;;;;5.33;4.83;;;10.00;1.00;;;;;;5080236;28;20441;-88
2023/04/19 08:56:53;;;;;;;7.60;2.90;;;10.20;1.00;;;;;;5078459;28;20469;-87
2023/04/19 08:59:20;;;;;;;4.73;3.07;;;10.30;1.00;;;;;;5078920;28;20540;-87
2023/04/19 09:01:46;;;;;;;4.30;3.67;;;10.20;1.00;;;;;;5080363;28;20867;-88
2023/04/19 09:04:13;;;;;;;6.77;3.30;;;10.40;1.00;;;;;;5080340;28;20896;-87
2023/04/19 09:06:41;;;;;;;5.07;3.40;;;10.80;1.00;;;;;;5079581;28;20449;-87
2023/04/19 09:09:21;;;;;;;4.40;2.70;;;10.80;1.00;;;;;;5081207;28;20517;-87
2023/04/19 09:11:48;;;;;;;4.70;3.33;;;;;;;;;;5079876;28;20433;-88
2023/04/19 09:14:17;;;;;;;3.03;2.83;;;10.70;1.00;;;;;;5079419;28;20537;-88
2023/04/19 09:16:45;;;;;;;5.07;2.60;;;10.50;1.00;;;;;;5078269;28;20535;-87
2023/04/19 09:19:12;;;;;;;6.23;3.40;;;10.40;1.00;;;;;;5078725;28;20457;-88
2023/04/19 09:21:39;;;;;;;6.03;3.40;;;10.20;1.00;;;;;;5080067;28;21016;-87
2023/04/19 09:24:07;;;;;;;4.40;3.30;;;10.10;1.00;;;;;;5077737;28;21027;-86
2023/04/19 09:26:36;;;;;;;3.67;3.33;;;9.80;1.00;;;;;;5079959;28;20521;-87
2023/04/19 09:29:04;;;;;;;6.90;3.43;;;10.00;1.00;;;;;;5079634;28;20510;-89
2023/04/19 09:31:32;;;;;;;14.30;3.83;;;10.40;1.00;;;;;;5095253;28;20594;-86
2023/04/19 09:34:13;;;;;;;3.53;3.23;;;10.40;1.00;;;;;;5085373;28;20438;-88
2023/04/19 09:36:40;;;;;;;6.53;3.23;;;10.30;1.00;;;;;;5085244;28;20413;-88
2023/04/19 09:39:06;;;;;;;3.97;3.63;;;10.60;1.00;;;;;;5089020;28;20532;-88
2023/04/19 09:41:36;;;;;;;9.23;3.67;;;10.70;1.00;;;;;;5079993;28;20469;-88
2023/04/19 09:44:10;;;;;;;6.50;3.40;;;10.70;1.00;;;;;;5077810;28;20485;-87
2023/04/19 09:46:37;;;;;;;5.60;3.50;;;11.30;1.00;;;;;;5079611;28;20484;-87
2023/04/19 09:49:22;;;;;;;8.37;5.83;;;10.90;1.00;;;;;;5077559;28;20445;-88
2023/04/19 09:51:50;;;;;;;5.93;4.73;;;10.70;1.00;;;;;;5078663;28;20484;-88
2023/04/19 09:54:19;;;;;;;4.90;3.10;;;10.70;99.90;;;;;;5085835;28;20440;-87
2023/04/19 09:56:48;;;;;;;6.30;3.20;;;10.30;1.00;;;;;;5098230;28;20453;-87
2023/04/19 09:59:15;;;;;;;3.97;3.03;;;10.40;1.00;;;;;;5086493;28;20437;-87
2023/04/19 10:01:44;;;;;;;5.70;4.07;;;10.20;1.00;;;;;;5079614;28;20453;-88
2023/04/19 10:04:12;;;;;;;5.27;3.47;;;10.00;1.00;;;;;;5080799;28;20504;-87
2023/04/19 10:06:40;;;;;;;3.90;3.60;;;10.40;1.00;;;;;;5079159;28;20532;-87
2023/04/19 10:09:09;;;;;;;5.57;3.50;;;10.40;1.00;;;;;;5081359;28;20445;-88
2023/04/19 10:11:38;;;;;;;6.03;3.63;;;10.50;1.00;;;;;;5081834;28;20464;-87
2023/04/19 10:14:08;;;;;;;4.30;3.53;;;10.80;1.00;;;;;;5078977;28;20962;-87
2023/04/19 10:16:36;;;;;;;4.87;3.90;;;10.60;1.00;;;;;;5079019;28;20512;-88
2023/04/19 10:29:58;;;;;;;4.10;3.70;;;11.40;1.00;;;;;;5998356;22;20417;-87
2023/04/19 10:32:28;;;;;;;9.83;4.83;;;11.20;99.90;;;;;;5035097;28;20433;-87
2023/04/19 10:34:54;;;;;;;8.10;6.00;;;11.40;99.90;;;;;;5031705;28;20433;-87
2023/04/19 10:37:26;;;;;;;7.63;3.70;;;11.60;99.90;;;;;;5034183;28;20455;-87
2023/04/19 10:39:53;;;;;;;8.43;4.20;;;;;;;;;;5036265;28;20487;-87
2023/04/19 10:42:20;;;;;;;7.07;3.63;;;12.10;1.00;;;;;;5034094;28;20447;-87
2023/04/19 10:45:24;;;;;;;6.50;4.13;;;11.80;99.90;;;;;;5037671;28;20543;-86
2023/04/19 10:47:52;;;;;;;6.17;3.93;;;12.10;1.00;;;;;;5038770;28;20427;-86
2023/04/19 10:50:19;;;;;;;6.00;3.80;;;12.00;99.90;;;;;;5039145;28;20500;-87
2023/04/19 10:52:46;;;;;;;8.60;4.93;;;;;;;;;;5029666;28;20819;-87
2023/04/19 10:55:18;;;;;;;4.73;3.43;;;12.20;99.90;;;;;;5038665;28;20456;-87
2023/04/19 10:58:04;;;;;;;5.73;3.70;;;12.30;1.00;;;;;;5040363;28;20443;-86
2023/04/19 11:00:32;;;;;;;3.67;3.37;;;12.20;99.90;;;;;;5040923;28;20458;-86
2023/04/19 11:03:20;;;;;;;6.13;3.20;;;12.50;1.00;;;;;;5041348;28;20439;-85
2023/04/19 11:06:25;;;;;;;5.77;3.93;;;11.80;1.00;;;;;;5041008;28;20500;-86
2023/04/19 11:08:54;;;;;;;8.67;4.47;;;12.00;99.90;;;;;;5038290;28;20428;-88
2023/04/19 11:11:21;;;;;;;4.70;3.50;;;11.80;99.90;;;;;;5037860;28;20528;-88
2023/04/19 11:13:48;;;;;;;5.93;3.93;;;11.90;99.90;;;;;;5035847;28;20479;-88
2023/04/19 11:16:15;;;;;;;4.13;3.70;;;12.00;99.90;;;;;;5035599;28;20435;-87
2023/04/19 11:18:43;;;;;;;3.67;3.07;;;12.00;99.90;;;;;;5031175;28;20504;-88
2023/04/19 11:21:13;;;;;;;4.50;3.40;;;12.10;99.90;;;;;;5028013;28;20993;-87
2023/04/19 11:23:40;;;;;;;8.60;4.37;;;12.00;1.00;;;;;;5024127;28;20448;-88
2023/04/19 11:26:10;;;;;;;4.20;3.77;;;11.70;99.90;;;;;;5021214;28;20448;-86
2023/04/19 11:28:38;;;;;;;6.60;4.53;;;11.80;99.90;;;;;;5021086;28;20433;-87
2023/04/19 11:31:05;;;;;;;3.87;3.43;;;11.90;99.90;;;;;;5022516;28;20480;-88
2023/04/19 11:33:33;;;;;;;6.40;4.37;;;11.90;99.90;;;;;;5038474;28;20500;-88
2023/04/19 11:36:00;;;;;;;4.73;3.90;;;11.70;99.90;;;;;;5035376;28;20439;-88
2023/04/19 11:38:27;;;;;;;7.50;3.20;;;11.60;99.90;;;;;;5032389;28;20448;-88
2023/04/19 11:40:59;;;;;;;6.10;3.97;;;11.50;99.90;;;;;;5035334;28;20471;-87
2023/04/19 11:43:33;;;;;;;5.93;3.70;;;11.50;99.90;;;;;;5031110;28;20428;-88
2023/04/19 11:46:05;;;;;;;4.90;3.90;;;11.30;1.00;;;;;;5031907;28;20820;-88
2023/04/19 11:48:32;;;;;;;7.70;4.20;;;11.40;99.90;;;;;;5024573;28;20432;-89
2023/04/19 11:50:59;;;;;;;9.20;4.40;;;11.50;99.90;;;;;;5024027;28;20498;-88
2023/04/19 11:53:27;;;;;;;4.53;3.50;;;11.60;99.90;;;;;;5023775;28;20440;-88
2023/04/19 11:55:56;;;;;;;12.30;4.80;;;11.60;99.90;;;;;;5029347;28;20507;-88
2023/04/19 11:58:29;;;;;;;7.53;4.10;;;11.70;99.90;;;;;;5026786;28;20462;-88
2023/04/19 12:01:05;;;;;;;11.37;5.80;;;11.60;99.90;;;;;;5027285;28;20472;-88
2023/04/19 12:03:32;;;;;;;5.10;4.00;;;11.70;99.90;;;;;;5027297;28;20450;-89
2023/04/19 12:06:02;;;;;;;5.23;3.90;;;11.80;99.90;;;;;;5032702;28;20460;-88
2023/04/19 12:08:33;;;;;;;6.90;3.30;;;11.80;99.90;;;;;;5033416;28;20428;-88
2023/04/19 12:11:02;;;;;;;3.90;3.50;;;11.90;99.90;;;;;;5031296;28;20441;-88
2023/04/19 12:13:29;;;;;;;4.50;3.63;;;12.10;99.90;;;;;;5030108;28;20475;-88
2023/04/19 12:15:58;;;;;;;6.70;3.47;;;12.10;99.90;;;;;;5031376;28;20446;-89
2023/04/19 12:18:25;;;;;;;5.87;3.77;;;12.30;99.90;;;;;;5032286;28;20452;-88
2023/04/19 12:20:53;;;;;;;4.33;3.60;;;12.10;99.90;;;;;;5036652;28;20452;-89
2023/04/19 12:23:21;;;;;;;7.47;3.67;;;11.80;99.90;;;;;;5034069;28;20951;-88
2023/04/19 12:25:49;;;;;;;4.17;3.07;;;11.50;99.90;;;;;;5026199;28;20612;-89
2023/04/19 12:28:16;;;;;;;5.20;3.60;;;11.30;99.90;;;;;;5023699;28;20543;-87
2023/04/19 12:30:43;;;;;;;6.20;3.47;;;11.30;99.90;;;;;;5021827;28;20539;-89
2023/04/19 12:33:12;;;;;;;5.23;3.80;;;11.70;99.90;;;;;;5023929;28;20524;-87
2023/04/19 12:35:39;;;;;;;6.23;3.17;;;11.70;99.90;;;;;;5023620;28;20764;-88
2023/04/19 12:38:07;;;;;;;5.50;3.93;;;11.90;99.90;;;;;;5024809;28;20452;-88
2023/04/19 12:40:34;;;;;;;6.10;4.90;;;12.10;99.90;;;;;;5025310;28;20472;-88
2023/04/19 12:43:01;;;;;;;10.33;4.47;;;12.00;99.90;;;;;;5024307;28;20480;-88
2023/04/19 12:45:28;;;;;;;3.77;3.27;;;12.10;99.90;;;;;;5023625;28;20479;-88
2023/04/19 12:47:55;;;;;;;3.50;3.20;;;12.30;99.90;;;;;;5021077;28;20499;-88
2023/04/19 12:50:24;;;;;;;4.43;3.70;;;12.10;99.90;;;;;;5021965;28;20476;-88
2023/04/19 12:52:52;;;;;;;4.17;3.50;;;12.40;99.90;;;;;;5036880;28;20855;-87
2023/04/19 12:55:19;;;;;;;8.00;4.03;;;12.10;1.00;;;;;;5038976;28;20446;-86
2023/04/19 12:57:46;;;;;;;4.00;3.50;;;12.10;1.00;;;;;;5038933;28;20432;-87
2023/04/19 13:00:14;;;;;;;6.53;4.20;;;12.20;1.00;;;;;;5026927;28;20460;-88
2023/04/19 13:02:41;;;;;;;5.83;4.00;;;12.00;99.90;;;;;;5030085;28;20491;-88
2023/04/19 13:05:12;;;;;;;8.57;4.23;;;12.00;1.00;;;;;;5037707;28;20448;-86
2023/04/19 13:07:40;;;;;;;3.93;3.60;;;11.90;99.90;;;;;;5039119;28;20476;-86
2023/04/19 13:10:08;;;;;;;9.20;4.27;;;11.90;99.90;;;;;;5037617;28;20467;-88
2023/04/19 13:12:36;;;;;;;5.50;4.23;;;11.80;99.90;;;;;;5029643;28;20450;-87
2023/04/19 13:15:03;;;;;;;6.73;4.33;;;11.90;99.90;;;;;;5024969;28;20422;-88
2023/04/19 13:17:30;;;;;;;5.60;4.33;;;12.00;99.90;;;;;;5033346;28;20467;-87
2023/04/19 13:19:57;;;;;;;7.23;3.67;;;12.20;99.90;;;;;;5036990;28;20474;-87
2023/04/19 13:22:24;;;;;;;6.70;3.90;;;12.30;99.90;;;;;;5037561;28;20431;-88
2023/04/19 13:24:52;;;;;;;6.00;3.83;;;12.60;1.00;;;;;;5037739;28;20498;-87